Time;durP1;ratioP1;P1;durP2;ratioP2;P2;SDS_P1;SDS_P2;PMS_P1;PMS_P2;Temp;Humidity;BMP_temperature;BMP_pressure;BME280_temperature;BME280_humidity;BME280_pressure;Samples;Min_cycle;Max_cycle;Signal;HPM_P1;HPM_P2
2023/12/03 00:00:09;;;;;;;56.70;24.63;;;;;;;;;;5026449;28;20203;-72
2023/12/03 00:02:36;;;;;;;57.33;23.50;;;;;;;;;;5020756;28;20194;-72
2023/12/03 00:05:03;;;;;;;55.43;24.90;;;;;;;;;;5030821;28;20254;-73
2023/12/03 00:07:29;;;;;;;59.53;24.33;;;;;;;;;;5024119;28;20574;-72
2023/12/03 00:09:58;;;;;;;59.60;24.13;;;;;;;;;;5025454;28;20213;-73
2023/12/03 00:12:24;;;;;;;55.93;23.90;;;;;;;;;;5034565;28;20208;-73
2023/12/03 00:14:50;;;;;;;56.93;24.10;;;;;;;;;;5003319;28;20272;-73
2023/12/03 00:17:15;;;;;;;57.40;23.83;;;;;;;;;;5034638;28;20723;-73
2023/12/03 00:19:41;;;;;;;59.37;24.80;;;;;;;;;;5025856;28;20194;-72
2023/12/03 00:22:07;;;;;;;61.23;25.33;;;;;;;;;;5036681;28;20200;-72
2023/12/03 00:24:32;;;;;;;60.37;25.67;;;;;;;;;;5022446;28;20190;-72
2023/12/03 00:26:59;;;;;;;58.43;24.23;;;;;;;;;;5032918;28;20209;-72
2023/12/03 00:29:24;;;;;;;60.70;25.73;;;;;;;;;;5031820;28;20197;-71
2023/12/03 00:31:50;;;;;;;51.87;23.73;;;;;;;;;;5030013;28;20182;-72
2023/12/03 00:34:15;;;;;;;57.77;25.73;;;;;;;;;;5037175;28;20189;-72
2023/12/03 00:36:41;;;;;;;60.80;26.93;;;;;;;;;;5036391;28;20183;-72
2023/12/03 00:39:06;;;;;;;54.43;24.47;;;;;;;;;;5035598;28;20198;-72
2023/12/03 00:41:31;;;;;;;57.63;26.10;;;;;;;;;;5029775;28;20182;-72
2023/12/03 00:43:57;;;;;;;60.13;25.33;;;;;;;;;;5048810;28;20181;-71
2023/12/03 00:46:22;;;;;;;62.77;25.63;;;;;;;;;;5031774;28;20285;-71
2023/12/03 00:48:48;;;;;;;60.70;26.13;;;;;;;;;;5034317;28;20270;-72
2023/12/03 00:51:14;;;;;;;59.10;26.77;;;;;;;;;;5033333;28;20254;-72
2023/12/03 00:53:42;;;;;;;58.03;25.23;;;;;;;;;;5011414;28;20201;-72
2023/12/03 00:56:08;;;;;;;56.37;25.33;;;;;;;;;;5033088;28;20237;-73
2023/12/03 00:58:34;;;;;;;61.83;27.60;;;;;;;;;;5018951;28;20260;-72
2023/12/03 01:00:59;;;;;;;61.50;25.50;;;;;;;;;;5025094;28;20605;-73
2023/12/03 01:03:25;;;;;;;58.50;25.63;;;;;;;;;;5030012;28;20182;-71
2023/12/03 01:05:50;;;;;;;58.03;24.87;;;;;;;;;;5029735;28;20217;-71
2023/12/03 01:08:16;;;;;;;60.30;25.37;;;;;;;;;;5035793;28;20267;-71
2023/12/03 01:10:42;;;;;;;61.77;25.50;;;;;;;;;;5027768;28;20183;-72
2023/12/03 01:13:07;;;;;;;62.20;25.43;;;;;;;;;;5032283;28;20178;-71
2023/12/03 01:15:33;;;;;;;60.93;24.67;;;;;;;;;;5031051;28;20304;-72
2023/12/03 01:17:58;;;;;;;54.00;24.90;;;;;;;;;;5036597;28;20194;-72
2023/12/03 01:20:23;;;;;;;64.47;26.57;;;;;;;;;;5035945;28;20197;-72
2023/12/03 01:22:49;;;;;;;57.67;24.87;;;;;;;;;;5030101;28;20186;-73
2023/12/03 01:25:14;;;;;;;59.67;25.20;;;;;;;;;;5033048;28;20198;-73
2023/12/03 01:27:40;;;;;;;61.27;25.07;;;;;;;;;;5032155;28;20210;-72
2023/12/03 01:30:06;;;;;;;64.90;23.87;;;;;;;;;;5032682;28;20185;-72
2023/12/03 01:32:31;;;;;;;66.30;24.87;;;;;;;;;;5037301;28;20186;-72
2023/12/03 01:34:57;;;;;;;56.83;23.63;;;;;;;;;;5039249;28;20572;-72
2023/12/03 01:37:22;;;;;;;62.07;25.37;;;;;;;;;;5032886;28;20190;-72
2023/12/03 01:39:47;;;;;;;70.47;25.33;;;;;;;;;;5036243;28;20182;-72
2023/12/03 01:42:13;;;;;;;59.00;26.00;;;;;;;;;;5033127;28;20201;-72
2023/12/03 01:44:38;;;;;;;60.70;24.80;;;;;;;;;;5030927;28;20190;-72
2023/12/03 01:47:04;;;;;;;69.87;26.20;;;;;;;;;;5032891;28;20616;-72
2023/12/03 01:49:31;;;;;;;67.47;25.67;;;;;;;;;;5028014;28;20216;-72
2023/12/03 01:51:57;;;;;;;62.50;24.73;;;;;;;;;;5031043;28;20219;-73
2023/12/03 01:54:27;;;;;;;62.13;25.57;;;;;;;;;;5009886;28;20181;-72
2023/12/03 01:56:53;;;;;;;58.00;24.70;;;;;;;;;;5024086;28;20190;-72
2023/12/03 01:59:18;;;;;;;63.80;24.83;;;;;;;;;;5052571;28;20547;-72
2023/12/03 02:01:44;;;;;;;68.13;24.53;;;;;;;;;;5036011;28;20179;-72
2023/12/03 02:04:09;;;;;;;60.27;24.97;;;;;;;;;;5021366;28;20202;-72
2023/12/03 02:06:35;;;;;;;63.00;23.47;;;;;;;;;;5032769;28;20233;-72
2023/12/03 02:09:01;;;;;;;67.57;23.50;;;;;;;;;;5027911;28;20186;-72
2023/12/03 02:11:26;;;;;;;60.63;25.17;;;;;;;;;;5027842;28;20190;-72
2023/12/03 02:13:51;;;;;;;60.50;25.27;;;;;;;;;;5032738;28;20182;-72
2023/12/03 02:16:17;;;;;;;59.33;23.10;;;;;;;;;;5029499;28;20216;-72
2023/12/03 02:18:43;;;;;;;56.50;22.60;;;;;;;;;;5018500;28;20308;-72
2023/12/03 02:21:09;;;;;;;61.97;24.67;;;;;;;;;;5033282;28;20234;-72
2023/12/03 02:23:34;;;;;;;58.13;24.60;;;;;;;;;;5031542;28;20250;-72
2023/12/03 02:25:59;;;;;;;58.13;26.13;;;;;;;;;;5038032;28;20181;-72
2023/12/03 02:28:25;;;;;;;61.23;26.13;;;;;;;;;;5034903;28;20245;-72
2023/12/03 02:30:50;;;;;;;60.63;25.57;;;;;;;;;;5031318;28;20202;-73
2023/12/03 02:33:16;;;;;;;63.87;26.37;;;;;;;;;;5035922;28;20205;-73
2023/12/03 02:35:42;;;;;;;65.03;26.90;;;;;;;;;;5039869;28;20594;-73
2023/12/03 02:38:07;;;;;;;59.77;25.27;;;;;;;;;;5053801;28;20287;-73
2023/12/03 02:40:35;;;;;;;59.47;24.80;;;;;;;;;;5035851;28;20224;-73
2023/12/03 02:43:00;;;;;;;64.03;25.67;;;;;;;;;;5027602;28;20244;-73
2023/12/03 02:45:26;;;;;;;60.90;25.57;;;;;;;;;;5037258;28;20194;-73
2023/12/03 02:47:51;;;;;;;56.03;24.90;;;;;;;;;;5029945;28;20220;-73
2023/12/03 02:50:17;;;;;;;57.90;23.67;;;;;;;;;;5022993;28;20276;-72
2023/12/03 02:52:42;;;;;;;52.63;24.00;;;;;;;;;;5012008;28;20217;-73
2023/12/03 02:55:08;;;;;;;52.77;21.80;;;;;;;;;;5026260;28;20217;-73
2023/12/03 02:57:37;;;;;;;55.47;22.63;;;;;;;;;;5033852;28;20821;-73
2023/12/03 03:00:04;;;;;;;60.00;23.77;;;;;;;;;;5026117;28;20195;-73
2023/12/03 03:02:31;;;;;;;54.60;22.83;;;;;;;;;;5027180;28;20237;-73
2023/12/03 03:04:57;;;;;;;56.13;22.97;;;;;;;;;;5026039;28;20198;-73
2023/12/03 03:07:22;;;;;;;58.07;24.97;;;;;;;;;;5029403;28;20213;-73
2023/12/03 03:09:47;;;;;;;57.10;23.10;;;;;;;;;;5019017;28;20548;-73
2023/12/03 03:12:13;;;;;;;60.97;22.90;;;;;;;;;;5030292;28;20187;-73
2023/12/03 03:14:39;;;;;;;57.00;23.23;;;;;;;;;;5027881;28;20244;-73
2023/12/03 03:17:04;;;;;;;56.00;21.97;;;;;;;;;;5031111;28;20194;-74
2023/12/03 03:19:31;;;;;;;56.87;24.23;;;;;;;;;;5030231;28;20253;-74
2023/12/03 03:21:56;;;;;;;51.30;21.70;;;;;;;;;;5026348;28;20306;-73
2023/12/03 03:24:22;;;;;;;54.73;20.77;;;;;;;;;;5030284;28;20198;-73
2023/12/03 03:26:47;;;;;;;54.17;22.53;;;;;;;;;;5032660;28;20212;-73
2023/12/03 03:29:13;;;;;;;47.40;20.50;;;;;;;;;;5030991;28;20221;-73
2023/12/03 03:31:38;;;;;;;49.23;21.40;;;;;;;;;;5032505;28;20190;-74
2023/12/03 03:34:06;;;;;;;51.70;21.53;;;;;;;;;;5031088;28;20197;-73
2023/12/03 03:36:32;;;;;;;50.40;20.93;;;;;;;;;;5028544;28;20201;-74
2023/12/03 03:38:57;;;;;;;52.37;19.30;;;;;;;;;;5034984;28;20189;-73
2023/12/03 03:41:22;;;;;;;46.80;19.43;;;;;;;;;;5040413;28;20190;-74
2023/12/03 03:43:48;;;;;;;55.57;21.60;;;;;;;;;;5024204;28;20360;-73
2023/12/03 03:46:14;;;;;;;48.90;20.30;;;;;;;;;;5041372;28;20379;-73
2023/12/03 03:48:39;;;;;;;46.70;19.53;;;;;;;;;;5031014;28;20207;-73
2023/12/03 03:51:06;;;;;;;49.47;19.47;;;;;;;;;;5031798;28;20245;-74
2023/12/03 03:53:31;;;;;;;52.40;21.83;;;;;;;;;;5034015;28;20244;-74
2023/12/03 03:55:57;;;;;;;51.97;21.17;;;;;;;;;;5038599;28;20189;-74
2023/12/03 03:58:22;;;;;;;48.23;20.17;;;;;;;;;;5030079;28;20213;-74
2023/12/03 04:00:48;;;;;;;50.57;20.07;;;;;;;;;;5033225;28;20189;-74
2023/12/03 04:03:13;;;;;;;50.70;20.57;;;;;;;;;;5034262;28;20190;-74
2023/12/03 04:05:39;;;;;;;52.40;21.20;;;;;;;;;;5033071;28;20198;-74
2023/12/03 04:08:04;;;;;;;48.60;19.77;;;;;;;;;;5042250;28;20686;-74
2023/12/03 04:10:29;;;;;;;53.23;20.53;;;;;;;;;;5035010;28;20233;-74
2023/12/03 04:12:56;;;;;;;45.90;19.70;;;;;;;;;;5021328;28;20192;-74
2023/12/03 04:15:21;;;;;;;60.00;22.10;;;;;;;;;;5029510;28;20630;-74
2023/12/03 04:17:47;;;;;;;55.47;21.50;;;;;;;;;;5040725;28;20313;-74
2023/12/03 04:20:12;;;;;;;56.87;22.13;;;;;;;;;;5038209;28;20228;-74
2023/12/03 04:22:38;;;;;;;54.07;21.20;;;;;;;;;;5033413;28;20177;-74
2023/12/03 04:25:04;;;;;;;55.90;20.90;;;;;;;;;;5027736;28;20202;-74
2023/12/03 04:27:29;;;;;;;52.77;21.63;;;;;;;;;;5034282;28;20194;-73
2023/12/03 04:29:55;;;;;;;60.50;22.00;;;;;;;;;;5026583;28;20533;-74
2023/12/03 04:32:21;;;;;;;59.03;23.30;;;;;;;;;;5030358;28;20269;-74
2023/12/03 04:34:46;;;;;;;60.13;23.10;;;;;;;;;;5030243;28;20779;-74
2023/12/03 04:37:11;;;;;;;55.27;21.20;;;;;;;;;;5029064;28;20209;-74
2023/12/03 04:39:38;;;;;;;59.00;22.73;;;;;;;;;;5028595;28;20889;-74
2023/12/03 04:42:03;;;;;;;57.93;21.87;;;;;;;;;;5034938;28;20644;-74
2023/12/03 04:44:31;;;;;;;60.53;22.40;;;;;;;;;;5029357;28;20177;-74
2023/12/03 04:46:56;;;;;;;58.00;22.57;;;;;;;;;;5036450;28;20202;-74
2023/12/03 04:49:22;;;;;;;54.10;20.83;;;;;;;;;;5014462;28;20521;-74
2023/12/03 04:51:47;;;;;;;56.03;22.27;;;;;;;;;;5009777;28;20656;-74
2023/12/03 04:54:13;;;;;;;60.10;21.00;;;;;;;;;;5027790;28;20234;-74
2023/12/03 04:56:38;;;;;;;57.57;21.80;;;;;;;;;;5026515;28;20239;-74
2023/12/03 04:59:04;;;;;;;53.40;21.03;;;;;;;;;;5034349;28;20204;-74
2023/12/03 05:01:30;;;;;;;62.57;22.00;;;;;;;;;;5030650;28;20178;-74
2023/12/03 05:03:55;;;;;;;60.70;22.23;;;;;;;;;;5030064;28;20842;-74
2023/12/03 05:06:20;;;;;;;62.03;21.60;;;;;;;;;;5011316;28;20597;-74
2023/12/03 05:08:46;;;;;;;59.43;21.83;;;;;;;;;;5035926;28;20607;-74
2023/12/03 05:11:11;;;;;;;65.37;22.60;;;;;;;;;;5031000;28;20662;-74
2023/12/03 05:13:37;;;;;;;74.90;23.83;;;;;;;;;;5033238;28;20212;-74
2023/12/03 05:16:04;;;;;;;59.23;21.80;;;;;;;;;;5020928;28;20556;-74
2023/12/03 05:18:30;;;;;;;62.80;22.40;;;;;;;;;;5026654;28;20510;-73
2023/12/03 05:20:57;;;;;;;63.10;22.20;;;;;;;;;;5029274;28;20631;-73
2023/12/03 05:23:23;;;;;;;62.17;22.00;;;;;;;;;;5018428;28;20213;-74
2023/12/03 05:25:48;;;;;;;64.93;22.67;;;;;;;;;;5016008;28;20185;-73
2023/12/03 05:28:13;;;;;;;66.07;22.93;;;;;;;;;;5024148;28;20297;-74
2023/12/03 05:30:39;;;;;;;63.33;22.50;;;;;;;;;;5028928;28;20567;-74
2023/12/03 05:33:04;;;;;;;61.47;22.63;;;;;;;;;;5029894;28;20657;-74
2023/12/03 05:35:30;;;;;;;59.90;21.73;;;;;;;;;;5041845;28;20649;-74
2023/12/03 05:37:55;;;;;;;63.80;22.37;;;;;;;;;;5029661;28;20186;-74
2023/12/03 05:40:21;;;;;;;65.83;22.93;;;;;;;;;;5030150;28;20201;-75
2023/12/03 05:42:47;;;;;;;74.37;23.20;;;;;;;;;;5035917;28;20215;-74
2023/12/03 05:45:13;;;;;;;68.33;22.63;;;;;;;;;;5034750;28;20177;-74
2023/12/03 05:47:40;;;;;;;63.33;22.07;;;;;;;;;;5037777;28;20218;-75
2023/12/03 05:50:06;;;;;;;64.83;24.37;;;;;;;;;;5027830;28;20598;-75
2023/12/03 05:52:32;;;;;;;67.20;23.20;;;;;;;;;;5030424;28;20179;-75
2023/12/03 05:54:57;;;;;;;79.20;24.10;;;;;;;;;;5035397;28;20239;-74
2023/12/03 05:57:23;;;;;;;76.50;25.73;;;;;;;;;;5012889;28;20653;-74
2023/12/03 05:59:49;;;;;;;73.40;26.03;;;;;;;;;;5034731;28;20192;-74
2023/12/03 06:02:16;;;;;;;77.33;25.93;;;;;;;;;;5033334;28;20296;-74
2023/12/03 06:04:41;;;;;;;69.47;23.67;;;;;;;;;;5030393;28;20688;-74
2023/12/03 06:07:07;;;;;;;65.70;22.00;;;;;;;;;;5028928;28;20237;-74
2023/12/03 06:09:33;;;;;;;76.33;23.73;;;;;;;;;;5024633;28;20197;-74
2023/12/03 06:11:58;;;;;;;71.17;24.20;;;;;;;;;;5039443;28;20198;-74
2023/12/03 06:14:23;;;;;;;64.90;23.50;;;;;;;;;;5034644;28;20284;-74
2023/12/03 06:16:49;;;;;;;74.10;24.20;;;;;;;;;;5032503;28;20536;-74
2023/12/03 06:19:14;;;;;;;64.87;23.33;;;;;;;;;;5010446;28;20308;-74
2023/12/03 06:21:40;;;;;;;59.67;22.80;;;;;;;;;;5032807;28;20190;-74
2023/12/03 06:24:05;;;;;;;73.27;24.77;;;;;;;;;;5027724;28;20635;-74
2023/12/03 06:26:31;;;;;;;67.63;24.27;;;;;;;;;;5011049;28;20766;-74
2023/12/03 06:28:57;;;;;;;78.50;25.03;;;;;;;;;;5036390;28;20661;-74
2023/12/03 06:31:22;;;;;;;77.57;24.40;;;;;;;;;;5026024;28;20194;-74
2023/12/03 06:33:47;;;;;;;78.47;25.70;;;;;;;;;;5026476;28;20198;-74
2023/12/03 06:36:13;;;;;;;76.87;25.20;;;;;;;;;;5036115;28;20190;-74
2023/12/03 06:38:38;;;;;;;71.67;24.57;;;;;;;;;;5035230;28;20189;-74
2023/12/03 06:41:04;;;;;;;73.57;25.03;;;;;;;;;;5032985;28;20173;-74
2023/12/03 06:43:29;;;;;;;76.50;24.53;;;;;;;;;;5036347;28;20194;-74
2023/12/03 06:45:55;;;;;;;68.60;25.37;;;;;;;;;;5035672;28;20231;-74
2023/12/03 06:48:21;;;;;;;72.20;24.87;;;;;;;;;;5034982;28;20739;-74
2023/12/03 06:50:47;;;;;;;73.33;26.30;;;;;;;;;;5028689;28;20188;-74
2023/12/03 06:53:12;;;;;;;78.27;26.50;;;;;;;;;;5030451;28;20190;-74
2023/12/03 06:55:38;;;;;;;76.13;27.27;;;;;;;;;;5038497;28;20200;-74
2023/12/03 06:58:03;;;;;;;76.23;26.13;;;;;;;;;;5046383;28;20889;-74
2023/12/03 07:00:29;;;;;;;64.53;25.13;;;;;;;;;;5027596;28;20182;-74
2023/12/03 07:02:54;;;;;;;81.20;28.07;;;;;;;;;;5028907;28;20199;-74
2023/12/03 07:05:20;;;;;;;66.97;26.90;;;;;;;;;;5020669;28;20610;-74
2023/12/03 07:07:48;;;;;;;80.87;30.27;;;;;;;;;;5040555;28;20280;-74
2023/12/03 07:10:15;;;;;;;78.77;29.97;;;;;;;;;;5030619;28;20182;-74
2023/12/03 07:12:40;;;;;;;74.70;29.33;;;;;;;;;;5030280;28;20204;-74
2023/12/03 07:15:06;;;;;;;84.13;30.23;;;;;;;;;;5036380;28;20314;-74
2023/12/03 07:17:31;;;;;;;79.30;30.13;;;;;;;;;;5037935;28;20657;-74
2023/12/03 07:19:57;;;;;;;76.70;28.83;;;;;;;;;;5032142;28;20269;-74
2023/12/03 07:22:22;;;;;;;72.03;31.13;;;;;;;;;;5038645;28;20178;-75
2023/12/03 07:24:48;;;;;;;70.57;31.17;;;;;;;;;;5032953;28;20186;-75
2023/12/03 07:27:13;;;;;;;76.20;33.07;;;;;;;;;;5036546;28;20225;-75
2023/12/03 07:29:38;;;;;;;67.63;29.97;;;;;;;;;;5037192;28;20210;-75
2023/12/03 07:32:04;;;;;;;74.27;32.40;;;;;;;;;;5022800;28;20283;-75
2023/12/03 07:34:30;;;;;;;69.10;30.90;;;;;;;;;;5040509;28;20600;-75
2023/12/03 07:36:55;;;;;;;71.53;32.97;;;;;;;;;;5038382;28;20285;-75
2023/12/03 07:39:23;;;;;;;71.67;31.97;;;;;;;;;;5036456;28;20194;-75
2023/12/03 07:41:50;;;;;;;73.40;32.43;;;;;;;;;;5019789;28;20178;-75
2023/12/03 07:44:16;;;;;;;68.07;32.73;;;;;;;;;;5033690;28;20731;-75
2023/12/03 07:46:41;;;;;;;75.70;33.53;;;;;;;;;;5036029;28;20292;-75
2023/12/03 07:49:07;;;;;;;73.50;32.70;;;;;;;;;;5021441;28;20186;-75
2023/12/03 07:51:32;;;;;;;71.93;32.43;;;;;;;;;;5034754;28;20486;-75
2023/12/03 07:53:57;;;;;;;72.37;33.80;;;;;;;;;;5029579;28;20228;-75
2023/12/03 07:56:23;;;;;;;65.70;31.77;;;;;;;;;;5026736;28;20236;-75
2023/12/03 07:58:48;;;;;;;70.47;31.43;;;;;;;;;;5028567;28;20638;-75
2023/12/03 08:01:14;;;;;;;63.37;29.87;;;;;;;;;;5031172;28;20692;-74
2023/12/03 08:03:39;;;;;;;64.80;30.73;;;;;;;;;;5032352;28;20229;-75
2023/12/03 08:06:05;;;;;;;72.63;31.20;;;;;;;;;;5034061;28;20221;-75
2023/12/03 08:08:30;;;;;;;65.37;29.73;;;;;;;;;;5030292;28;20225;-74
2023/12/03 08:10:56;;;;;;;59.70;28.17;;;;;;;;;;5025820;28;20300;-74
2023/12/03 08:13:21;;;;;;;65.83;31.03;;;;;;;;;;5025780;28;20305;-74
2023/12/03 08:15:46;;;;;;;63.53;30.67;;;;;;;;;;5025012;28;20247;-74
2023/12/03 08:18:12;;;;;;;69.13;32.83;;;;;;;;;;5024294;28;20206;-75
2023/12/03 08:20:37;;;;;;;64.93;31.67;;;;;;;;;;5028056;28;20638;-74
2023/12/03 08:23:03;;;;;;;58.53;28.83;;;;;;;;;;5027823;28;20265;-74
2023/12/03 08:25:28;;;;;;;63.30;29.73;;;;;;;;;;5023937;28;20202;-75
2023/12/03 08:27:54;;;;;;;58.57;28.77;;;;;;;;;;5017296;28;20214;-74
2023/12/03 08:30:19;;;;;;;66.37;30.37;;;;;;;;;;5027582;28;20189;-75
2023/12/03 08:32:44;;;;;;;64.20;29.73;;;;;;;;;;5025484;28;20197;-74
2023/12/03 08:35:10;;;;;;;57.43;27.00;;;;;;;;;;5024023;28;20189;-74
2023/12/03 08:37:35;;;;;;;59.57;31.73;;;;;;;;;;5024438;28;20189;-74
2023/12/03 08:40:01;;;;;;;62.47;29.43;;;;;;;;;;5019898;28;20196;-73
2023/12/03 08:42:26;;;;;;;56.70;28.63;;;;;;;;;;5019050;28;20720;-73
2023/12/03 08:44:52;;;;;;;65.43;31.17;;;;;;;;;;5036806;28;20701;-73
2023/12/03 08:47:17;;;;;;;63.97;30.13;;;;;;;;;;5030418;28;20212;-74
2023/12/03 08:49:43;;;;;;;64.03;29.90;;;;;;;;;;5004745;28;20281;-73
2023/12/03 08:52:08;;;;;;;60.07;26.87;;;;;;;;;;5024513;28;20306;-73
2023/12/03 08:54:34;;;;;;;58.73;28.07;;;;;;;;;;5026055;28;20221;-73
2023/12/03 08:57:00;;;;;;;60.67;28.23;;;;;;;;;;5024836;28;20257;-73
2023/12/03 08:59:25;;;;;;;61.43;28.60;;;;;;;;;;5026340;28;20634;-73
2023/12/03 09:01:51;;;;;;;58.67;27.63;;;;;;;;;;5037620;28;20212;-73
2023/12/03 09:04:16;;;;;;;55.27;26.23;;;;;;;;;;5027362;28;20198;-74
2023/12/03 09:06:44;;;;;;;58.70;27.60;;;;;;;;;;5023818;28;20227;-73
2023/12/03 09:09:09;;;;;;;57.97;25.80;;;;;;;;;;5023962;28;20196;-74
2023/12/03 09:11:35;;;;;;;56.47;25.73;;;;;;;;;;5009161;28;20193;-74
2023/12/03 09:14:01;;;;;;;64.10;26.77;;;;;;;;;;5025889;28;20193;-74
2023/12/03 09:16:27;;;;;;;58.77;26.57;;;;;;;;;;5023208;28;20216;-74
2023/12/03 09:18:52;;;;;;;57.53;25.23;;;;;;;;;;5017928;28;20316;-74
2023/12/03 09:21:18;;;;;;;54.73;25.33;;;;;;;;;;5021806;28;20209;-74
2023/12/03 09:23:43;;;;;;;62.43;25.30;;;;;;;;;;5023570;28;20202;-73
2023/12/03 09:26:09;;;;;;;60.67;25.20;;;;;;;;;;5023232;28;20319;-74
2023/12/03 09:28:34;;;;;;;55.67;24.73;;;;;;;;;;5021901;28;20866;-73
2023/12/03 09:31:00;;;;;;;61.40;25.80;;;;;;;;;;5024897;28;20224;-73
2023/12/03 09:33:26;;;;;;;61.70;26.57;;;;;;;;;;5021177;28;20568;-74
2023/12/03 09:35:53;;;;;;;57.33;25.13;;;;;;;;;;5017882;28;20198;-73
2023/12/03 09:38:18;;;;;;;56.50;24.53;;;;;;;;;;5021840;28;20201;-74
2023/12/03 09:40:44;;;;;;;55.90;26.17;;;;;;;;;;5022567;28;20444;-73
2023/12/03 09:43:12;;;;;;;63.10;26.17;;;;;;;;;;5031086;28;20247;-73
2023/12/03 09:45:39;;;;;;;57.07;25.23;;;;;;;;;;5025440;28;20194;-73
2023/12/03 09:48:08;;;;;;;56.57;25.73;;;;;;;;;;5024575;28;20248;-73
2023/12/03 09:50:36;;;;;;;56.47;26.10;;;;;;;;;;5017786;28;20280;-73
2023/12/03 09:53:02;;;;;;;57.50;26.53;;;;;;;;;;5019069;28;20196;-73
2023/12/03 09:55:30;;;;;;;60.10;26.90;;;;;;;;;;5016158;28;20652;-73
2023/12/03 09:57:57;;;;;;;57.30;25.17;;;;;;;;;;5018364;28;20276;-74
2023/12/03 10:00:24;;;;;;;58.93;26.17;;;;;;;;;;5019300;28;20654;-73
2023/12/03 10:02:52;;;;;;;58.20;24.20;;;;;;;;;;5018836;28;20284;-73
2023/12/03 10:05:17;;;;;;;56.37;25.63;;;;;;;;;;5020357;28;20526;-73
2023/12/03 10:07:46;;;;;;;56.40;26.30;;;;;;;;;;5020296;28;20222;-73
2023/12/03 10:10:14;;;;;;;58.23;25.03;;;;;;;;;;5019826;28;20312;-73
2023/12/03 10:12:41;;;;;;;50.23;22.77;;;;;;;;;;5020085;28;20331;-73
2023/12/03 10:15:12;;;;;;;52.03;23.87;;;;;;;;;;5017225;28;20257;-73
2023/12/03 10:17:38;;;;;;;50.00;22.50;;;;;;;;;;5019077;28;20234;-74
2023/12/03 10:20:27;;;;;;;50.40;22.80;;;;;;;;;;5023811;28;20205;-73
2023/12/03 10:23:00;;;;;;;49.13;21.80;;;;;;;;;;5045307;28;20213;-73
2023/12/03 10:25:30;;;;;;;49.43;22.37;;;;;;;;;;5011923;28;20198;-73
2023/12/03 10:27:56;;;;;;;48.40;22.30;;;;;;;;;;5013849;28;20276;-73
2023/12/03 10:30:22;;;;;;;46.50;21.57;;;;;;;;;;5000467;28;20194;-75
2023/12/03 10:32:47;;;;;;;44.80;21.77;;;;;;;;;;5027213;28;20189;-74
2023/12/03 10:35:13;;;;;;;46.00;20.47;;;;;;;;;;5024350;28;20185;-73
2023/12/03 10:37:38;;;;;;;51.27;21.40;;;;;;;;;;5024015;28;20282;-73
2023/12/03 10:40:05;;;;;;;47.50;20.57;;;;;;;;;;5018912;28;20464;-73
2023/12/03 10:42:36;;;;;;;49.30;21.90;;;;;;;;;;5018173;28;20996;-73
2023/12/03 10:45:07;;;;;;;41.17;20.53;;;;;;;;;;5013091;28;20201;-73
2023/12/03 10:47:33;;;;;;;41.27;20.27;;;;;;;;;;5015633;28;20306;-73
2023/12/03 10:50:00;;;;;;;40.57;20.27;;;;;;;;;;5009090;28;20285;-73
2023/12/03 10:52:28;;;;;;;45.27;20.60;;;;;;;;;;5019252;28;20205;-73
2023/12/03 10:54:54;;;;;;;42.60;19.60;;;;;;;;;;5019597;28;20265;-73
2023/12/03 10:57:20;;;;;;;44.77;20.17;;;;;;;;;;5014495;28;20614;-73
2023/12/03 10:59:50;;;;;;;42.20;19.70;;;;;;;;;;5017358;28;20248;-73
2023/12/03 11:02:18;;;;;;;38.30;19.10;;;;;;;;;;5018522;28;20698;-73
2023/12/03 11:04:52;;;;;;;38.83;18.60;;;;;;;;;;5029122;28;20194;-73
2023/12/03 11:07:20;;;;;;;36.87;18.30;;;;;;;;;;5021506;28;20226;-73
2023/12/03 11:09:47;;;;;;;43.97;20.47;;;;;;;;;;5023851;28;20629;-73
2023/12/03 11:12:14;;;;;;;40.50;19.10;;;;;;;;;;5020970;28;20250;-73
2023/12/03 11:14:41;;;;;;;39.50;18.90;;;;;;;;;;5025821;28;20271;-72
2023/12/03 11:17:17;;;;;;;38.90;18.50;;;;;;;;;;5026041;28;20830;-73
2023/12/03 11:19:48;;;;;;;39.33;16.77;;;;;;;;;;5027183;28;20213;-73
2023/12/03 11:22:44;;;;;;;40.27;17.73;;;;;;;;;;5039093;28;20205;-72
2023/12/03 11:25:13;;;;;;;33.87;15.67;;;;;;;;;;4336474;28;9999947;-73
2023/12/03 11:27:42;;;;;;;36.23;16.33;;;;;;;;;;5037959;28;20218;-73
2023/12/03 11:30:08;;;;;;;32.50;16.00;;;;;;;;;;5032393;28;20186;-73
2023/12/03 11:32:35;;;;;;;32.23;16.57;;;;;;;;;;5028707;28;21394;-73
2023/12/03 11:35:04;;;;;;;32.93;16.40;;;;;;;;;;5022655;28;20854;-73
2023/12/03 11:37:30;;;;;;;34.50;16.47;;;;;;;;;;5024003;28;20246;-73
2023/12/03 11:40:01;;;;;;;33.33;15.73;;;;;;;;;;5030078;28;20205;-73
2023/12/03 11:42:27;;;;;;;31.20;15.07;;;;;;;;;;5029605;28;20201;-73
2023/12/03 11:45:21;;;;;;;32.27;15.10;;;;;;;;;;5030860;28;20220;-73
2023/12/03 11:48:06;;;;;;;31.43;15.27;;;;;;;;;;5031737;28;20214;-73
2023/12/03 11:50:34;;;;;;;29.50;14.40;;;;;;;;;;5030352;28;20244;-73
2023/12/03 11:52:59;;;;;;;34.20;17.10;;;;;;;;;;5027495;28;20223;-73
2023/12/03 11:55:26;;;;;;;33.80;15.73;;;;;;;;;;5030563;28;20575;-73
2023/12/03 11:57:52;;;;;;;32.87;15.97;;;;;;;;;;5035078;28;20177;-73
2023/12/03 12:00:18;;;;;;;31.00;16.07;;;;;;;;;;5026163;28;20209;-73
2023/12/03 12:02:44;;;;;;;31.17;16.23;;;;;;;;;;5031723;28;20190;-73
2023/12/03 12:05:09;;;;;;;33.30;15.80;;;;;;;;;;5031250;28;20846;-73
2023/12/03 12:07:35;;;;;;;34.67;16.53;;;;;;;;;;5028337;28;20585;-73
2023/12/03 12:10:01;;;;;;;30.23;15.30;;;;;;;;;;5027055;28;20435;-73
2023/12/03 12:12:26;;;;;;;30.17;15.27;;;;;;;;;;5035812;28;20213;-74
2023/12/03 12:14:51;;;;;;;32.90;16.13;;;;;;;;;;5026107;28;20225;-73
2023/12/03 12:17:17;;;;;;;33.37;15.80;;;;;;;;;;5025043;28;20212;-73
2023/12/03 12:19:49;;;;;;;29.77;14.97;;;;;;;;;;5026933;28;20583;-73
2023/12/03 12:22:15;;;;;;;32.97;16.00;;;;;;;;;;5035331;28;20236;-73
2023/12/03 12:24:45;;;;;;;30.90;14.87;;;;;;;;;;5016015;28;20229;-73
2023/12/03 12:27:10;;;;;;;31.77;15.83;;;;;;;;;;5002578;28;20317;-73
2023/12/03 12:29:36;;;;;;;36.67;17.37;;;;;;;;;;5024557;28;20186;-73
2023/12/03 12:32:02;;;;;;;32.97;16.43;;;;;;;;;;5026109;28;20186;-73
2023/12/03 12:34:29;;;;;;;32.30;15.33;;;;;;;;;;5033541;28;20186;-73
2023/12/03 12:37:23;;;;;;;30.80;15.60;;;;;;;;;;5025685;28;20190;-73
2023/12/03 12:39:48;;;;;;;30.53;14.53;;;;;;;;;;5028011;28;20222;-73
2023/12/03 12:42:24;;;;;;;31.07;14.83;;;;;;;;;;5026158;28;20194;-74
2023/12/03 12:44:50;;;;;;;38.60;16.13;;;;;;;;;;5020767;28;20529;-73
2023/12/03 12:47:18;;;;;;;32.47;15.53;;;;;;;;;;5019228;28;20230;-73
2023/12/03 12:49:57;;;;;;;33.53;14.77;;;;;;;;;;5011955;28;20248;-73
2023/12/03 12:52:24;;;;;;;28.23;14.33;;;;;;;;;;5024666;28;20202;-73
2023/12/03 12:54:50;;;;;;;30.80;15.33;;;;;;;;;;5025979;28;20226;-73
2023/12/03 12:57:17;;;;;;;30.47;15.93;;;;;;;;;;5021317;28;20208;-74
2023/12/03 12:59:43;;;;;;;32.13;15.70;;;;;;;;;;5021579;28;20404;-74
2023/12/03 13:02:17;;;;;;;31.13;15.33;;;;;;;;;;5025789;28;20190;-73
2023/12/03 13:04:42;;;;;;;29.83;15.70;;;;;;;;;;5027867;28;20737;-73
2023/12/03 13:07:08;;;;;;;31.23;15.23;;;;;;;;;;5020762;28;20300;-73
2023/12/03 13:09:34;;;;;;;32.27;15.50;;;;;;;;;;5017011;28;20222;-73
2023/12/03 13:11:59;;;;;;;34.73;15.00;;;;;;;;;;5024809;28;20193;-73
2023/12/03 13:14:25;;;;;;;32.53;16.07;;;;;;;;;;5022197;28;20226;-73
2023/12/03 13:16:50;;;;;;;31.43;15.73;;;;;;;;;;5022528;28;20213;-72
2023/12/03 13:19:17;;;;;;;32.30;14.83;;;;;;;;;;5029410;28;20217;-73
2023/12/03 13:21:43;;;;;;;32.73;15.73;;;;;;;;;;5028763;28;20267;-72
2023/12/03 13:24:09;;;;;;;31.07;15.47;;;;;;;;;;5023942;28;20194;-74
2023/12/03 13:26:34;;;;;;;27.40;15.27;;;;;;;;;;5036985;28;20244;-73
2023/12/03 13:29:00;;;;;;;29.50;14.63;;;;;;;;;;5024892;28;20241;-73
2023/12/03 13:31:26;;;;;;;26.57;13.93;;;;;;;;;;5021407;28;20220;-73
2023/12/03 13:33:51;;;;;;;28.73;14.93;;;;;;;;;;5018513;28;20221;-74
2023/12/03 13:36:16;;;;;;;28.40;14.20;;;;;;;;;;5018791;28;20201;-74
2023/12/03 13:38:42;;;;;;;28.27;14.00;;;;;;;;;;4999153;28;20211;-73
2023/12/03 13:41:08;;;;;;;26.10;14.23;;;;;;;;;;5013771;28;20235;-73
2023/12/03 13:43:33;;;;;;;32.40;14.53;;;;;;;;;;5015038;28;20206;-72
2023/12/03 13:45:59;;;;;;;26.30;13.57;;;;;;;;;;5014326;28;20845;-73
2023/12/03 13:48:24;;;;;;;29.93;13.20;;;;;;;;;;5016648;28;20236;-73
2023/12/03 13:50:50;;;;;;;24.07;13.07;;;;;;;;;;5010739;28;20629;-73
2023/12/03 13:53:15;;;;;;;27.50;13.53;;;;;;;;;;5012500;28;20209;-73
2023/12/03 13:55:41;;;;;;;26.60;14.67;;;;;;;;;;5017990;28;20177;-73
2023/12/03 13:58:07;;;;;;;25.27;13.60;;;;;;;;;;5017718;28;20197;-73
2023/12/03 14:00:32;;;;;;;29.90;14.63;;;;;;;;;;5018473;28;20190;-73
2023/12/03 14:02:58;;;;;;;27.07;14.20;;;;;;;;;;5018580;28;20250;-73
2023/12/03 14:05:23;;;;;;;28.73;14.23;;;;;;;;;;5027856;28;20189;-74
2023/12/03 14:07:48;;;;;;;31.10;14.73;;;;;;;;;;5025145;28;20361;-73
2023/12/03 14:10:14;;;;;;;30.27;15.63;;;;;;;;;;5024371;28;20573;-73